<?xml version="1.0" encoding="UTF-8"?>
<gpx xmlns="http://www.topografix.com/GPX/1/1" xmlns:xsi="http://www.w3.org/2001/XMLSchema-instance" version="1.1" xsi:schemaLocation="http://www.topografix.com/GPX/1/1 http://www.topografix.com/GPX/1/1/gpx.xsd">
  <metadata>
    <name>Northumberland Triathlon – Aquabike Sprint</name>
  </metadata>
  <trk>
    <name>Northumberland Triathlon – Aquabike Sprint</name>
    <trkseg>
      <trkpt lat="55.29124" lon="-1.572945">
        <ele>8.358613</ele>
        <time>2024-06-02T08:15:00.000Z</time>
      </trkpt>
      <trkpt lat="55.2912" lon="-1.572967">
        <ele>8.358619</ele>
        <time>2024-06-02T08:15:00.000Z</time>
      </trkpt>
      <trkpt lat="55.291014" lon="-1.573202">
        <ele>8.35862</ele>
        <time>2024-06-02T08:15:03.000Z</time>
      </trkpt>
      <trkpt lat="55.290957" lon="-1.573362">
        <ele>8.35862</ele>
        <time>2024-06-02T08:15:04.000Z</time>
      </trkpt>
      <trkpt lat="55.290669" lon="-1.574081">
        <ele>8.358625</ele>
        <time>2024-06-02T08:15:10.000Z</time>
      </trkpt>
      <trkpt lat="55.290523" lon="-1.574547">
        <ele>8.366708</ele>
        <time>2024-06-02T08:15:13.000Z</time>
      </trkpt>
      <trkpt lat="55.290455" lon="-1.57524">
        <ele>8.378022</ele>
        <time>2024-06-02T08:15:17.000Z</time>
      </trkpt>
      <trkpt lat="55.290427" lon="-1.575815">
        <ele>8.387175</ele>
        <time>2024-06-02T08:15:21.000Z</time>
      </trkpt>
      <trkpt lat="55.290435" lon="-1.576041">
        <ele>8.390695</ele>
        <time>2024-06-02T08:15:22.000Z</time>
      </trkpt>
      <trkpt lat="55.290436" lon="-1.57623">
        <ele>8.393773</ele>
        <time>2024-06-02T08:15:23.000Z</time>
      </trkpt>
      <trkpt lat="55.290555" lon="-1.577719">
        <ele>8.910599</ele>
        <time>2024-06-02T08:15:33.000Z</time>
      </trkpt>
      <trkpt lat="55.290715" lon="-1.57945">
        <ele>10.496895</ele>
        <time>2024-06-02T08:15:44.000Z</time>
      </trkpt>
      <trkpt lat="55.290776" lon="-1.580025">
        <ele>11.027916</ele>
        <time>2024-06-02T08:15:48.000Z</time>
      </trkpt>
      <trkpt lat="55.290915" lon="-1.580531">
        <ele>11.665001</ele>
        <time>2024-06-02T08:15:52.000Z</time>
      </trkpt>
      <trkpt lat="55.291237" lon="-1.581259">
        <ele>12.863018</ele>
        <time>2024-06-02T08:15:58.000Z</time>
      </trkpt>
      <trkpt lat="55.291434" lon="-1.581643">
        <ele>13.566666</ele>
        <time>2024-06-02T08:16:01.000Z</time>
      </trkpt>
      <trkpt lat="55.291614" lon="-1.58186">
        <ele>14.073009</ele>
        <time>2024-06-02T08:16:03.000Z</time>
      </trkpt>
      <trkpt lat="55.291782" lon="-1.581955">
        <ele>14.488193</ele>
        <time>2024-06-02T08:16:05.000Z</time>
      </trkpt>
      <trkpt lat="55.292129" lon="-1.581951">
        <ele>15.322145</ele>
        <time>2024-06-02T08:16:09.000Z</time>
      </trkpt>
      <trkpt lat="55.292853" lon="-1.581605">
        <ele>16.530922</ele>
        <time>2024-06-02T08:16:17.000Z</time>
      </trkpt>
      <trkpt lat="55.293021" lon="-1.581631">
        <ele>16.795924</ele>
        <time>2024-06-02T08:16:19.000Z</time>
      </trkpt>
      <trkpt lat="55.293152" lon="-1.581776">
        <ele>17.018047</ele>
        <time>2024-06-02T08:16:21.000Z</time>
      </trkpt>
      <trkpt lat="55.293396" lon="-1.582634">
        <ele>17.882495</ele>
        <time>2024-06-02T08:16:27.000Z</time>
      </trkpt>
      <trkpt lat="55.2937" lon="-1.584522">
        <ele>18.091185</ele>
        <time>2024-06-02T08:16:39.000Z</time>
      </trkpt>
      <trkpt lat="55.293698" lon="-1.584611">
        <ele>18.081839</ele>
        <time>2024-06-02T08:16:40.000Z</time>
      </trkpt>
      <trkpt lat="55.293728" lon="-1.584958">
        <ele>18.045471</ele>
        <time>2024-06-02T08:16:42.000Z</time>
      </trkpt>
      <trkpt lat="55.293895" lon="-1.58628">
        <ele>17.717326</ele>
        <time>2024-06-02T08:16:51.000Z</time>
      </trkpt>
      <trkpt lat="55.294073" lon="-1.587289">
        <ele>16.483019</ele>
        <time>2024-06-02T08:16:58.000Z</time>
      </trkpt>
      <trkpt lat="55.294101" lon="-1.588389">
        <ele>15.182892</ele>
        <time>2024-06-02T08:17:05.000Z</time>
      </trkpt>
      <trkpt lat="55.294081" lon="-1.589878">
        <ele>13.559948</ele>
        <time>2024-06-02T08:17:14.000Z</time>
      </trkpt>
      <trkpt lat="55.294081" lon="-1.590692">
        <ele>12.768865</ele>
        <time>2024-06-02T08:17:19.000Z</time>
      </trkpt>
      <trkpt lat="55.294077" lon="-1.591121">
        <ele>12.358938</ele>
        <time>2024-06-02T08:17:22.000Z</time>
      </trkpt>
      <trkpt lat="55.294149" lon="-1.591549">
        <ele>11.920652</ele>
        <time>2024-06-02T08:17:25.000Z</time>
      </trkpt>
      <trkpt lat="55.294271" lon="-1.591945">
        <ele>11.494485</ele>
        <time>2024-06-02T08:17:28.000Z</time>
      </trkpt>
      <trkpt lat="55.29429" lon="-1.592069">
        <ele>11.374363</ele>
        <time>2024-06-02T08:17:29.000Z</time>
      </trkpt>
      <trkpt lat="55.29445" lon="-1.592528">
        <ele>11.130899</ele>
        <time>2024-06-02T08:17:32.000Z</time>
      </trkpt>
      <trkpt lat="55.294489" lon="-1.592654">
        <ele>11.129927</ele>
        <time>2024-06-02T08:17:33.000Z</time>
      </trkpt>
      <trkpt lat="55.294578" lon="-1.592856">
        <ele>11.12841</ele>
        <time>2024-06-02T08:17:35.000Z</time>
      </trkpt>
      <trkpt lat="55.294664" lon="-1.593083">
        <ele>11.126901</ele>
        <time>2024-06-02T08:17:37.000Z</time>
      </trkpt>
      <trkpt lat="55.294739" lon="-1.593318">
        <ele>11.125249</ele>
        <time>2024-06-02T08:17:39.000Z</time>
      </trkpt>
      <trkpt lat="55.294339" lon="-1.593629">
        <ele>11.120633</ele>
        <time>2024-06-02T08:17:44.000Z</time>
      </trkpt>
      <trkpt lat="55.290618" lon="-1.596498">
        <ele>13.894064</ele>
        <time>2024-06-02T08:18:29.000Z</time>
      </trkpt>
      <trkpt lat="55.290392" lon="-1.596668">
        <ele>14.120154</ele>
        <time>2024-06-02T08:18:32.000Z</time>
      </trkpt>
      <trkpt lat="55.289262" lon="-1.597289">
        <ele>15.416698</ele>
        <time>2024-06-02T08:18:45.000Z</time>
      </trkpt>
      <trkpt lat="55.288195" lon="-1.597611">
        <ele>16.341121</ele>
        <time>2024-06-02T08:18:57.000Z</time>
      </trkpt>
      <trkpt lat="55.285982" lon="-1.597924">
        <ele>17.033767</ele>
        <time>2024-06-02T08:19:22.000Z</time>
      </trkpt>
      <trkpt lat="55.285689" lon="-1.598009">
        <ele>17.018873</ele>
        <time>2024-06-02T08:19:25.000Z</time>
      </trkpt>
      <trkpt lat="55.285497" lon="-1.598075">
        <ele>17.00982</ele>
        <time>2024-06-02T08:19:27.000Z</time>
      </trkpt>
      <trkpt lat="55.285432" lon="-1.598111">
        <ele>17.006353</ele>
        <time>2024-06-02T08:19:28.000Z</time>
      </trkpt>
      <trkpt lat="55.284934" lon="-1.598288">
        <ele>16.851697</ele>
        <time>2024-06-02T08:19:34.000Z</time>
      </trkpt>
      <trkpt lat="55.282843" lon="-1.599571">
        <ele>15.933507</ele>
        <time>2024-06-02T08:19:59.000Z</time>
      </trkpt>
      <trkpt lat="55.281675" lon="-1.600051">
        <ele>16.155504</ele>
        <time>2024-06-02T08:20:12.000Z</time>
      </trkpt>
      <trkpt lat="55.281498" lon="-1.600088">
        <ele>16.280487</ele>
        <time>2024-06-02T08:20:14.000Z</time>
      </trkpt>
      <trkpt lat="55.281388" lon="-1.60011">
        <ele>16.35662</ele>
        <time>2024-06-02T08:20:15.000Z</time>
      </trkpt>
      <trkpt lat="55.280925" lon="-1.600196">
        <ele>16.671411</ele>
        <time>2024-06-02T08:20:20.000Z</time>
      </trkpt>
      <trkpt lat="55.280171" lon="-1.600318">
        <ele>17.187697</ele>
        <time>2024-06-02T08:20:28.000Z</time>
      </trkpt>
      <trkpt lat="55.279703" lon="-1.600383">
        <ele>17.434499</ele>
        <time>2024-06-02T08:20:33.000Z</time>
      </trkpt>
      <trkpt lat="55.278612" lon="-1.600509">
        <ele>17.789773</ele>
        <time>2024-06-02T08:20:45.000Z</time>
      </trkpt>
      <trkpt lat="55.277615" lon="-1.600649">
        <ele>18.222154</ele>
        <time>2024-06-02T08:20:56.000Z</time>
      </trkpt>
      <trkpt lat="55.277533" lon="-1.60066">
        <ele>18.261501</ele>
        <time>2024-06-02T08:20:57.000Z</time>
      </trkpt>
      <trkpt lat="55.276024" lon="-1.60085">
        <ele>19.060626</ele>
        <time>2024-06-02T08:21:14.000Z</time>
      </trkpt>
      <trkpt lat="55.275381" lon="-1.601002">
        <ele>19.406443</ele>
        <time>2024-06-02T08:21:21.000Z</time>
      </trkpt>
      <trkpt lat="55.274763" lon="-1.60116">
        <ele>19.745987</ele>
        <time>2024-06-02T08:21:28.000Z</time>
      </trkpt>
      <trkpt lat="55.273428" lon="-1.60172">
        <ele>20.264275</ele>
        <time>2024-06-02T08:21:43.000Z</time>
      </trkpt>
      <trkpt lat="55.273017" lon="-1.601937">
        <ele>20.415196</ele>
        <time>2024-06-02T08:21:48.000Z</time>
      </trkpt>
      <trkpt lat="55.272759" lon="-1.602105">
        <ele>20.507705</ele>
        <time>2024-06-02T08:21:51.000Z</time>
      </trkpt>
      <trkpt lat="55.271693" lon="-1.602858">
        <ele>20.8553</ele>
        <time>2024-06-02T08:22:04.000Z</time>
      </trkpt>
      <trkpt lat="55.270114" lon="-1.604213">
        <ele>21.320158</ele>
        <time>2024-06-02T08:22:24.000Z</time>
      </trkpt>
      <trkpt lat="55.269114" lon="-1.604932">
        <ele>21.64798</ele>
        <time>2024-06-02T08:22:36.000Z</time>
      </trkpt>
      <trkpt lat="55.268247" lon="-1.605363">
        <ele>21.976451</ele>
        <time>2024-06-02T08:22:46.000Z</time>
      </trkpt>
      <trkpt lat="55.267481" lon="-1.605665">
        <ele>22.334051</ele>
        <time>2024-06-02T08:22:55.000Z</time>
      </trkpt>
      <trkpt lat="55.266761" lon="-1.605853">
        <ele>22.761319</ele>
        <time>2024-06-02T08:23:03.000Z</time>
      </trkpt>
      <trkpt lat="55.265863" lon="-1.605966">
        <ele>23.289811</ele>
        <time>2024-06-02T08:23:13.000Z</time>
      </trkpt>
      <trkpt lat="55.264432" lon="-1.60586">
        <ele>24.21293</ele>
        <time>2024-06-02T08:23:29.000Z</time>
      </trkpt>
      <trkpt lat="55.263664" lon="-1.605675">
        <ele>24.762332</ele>
        <time>2024-06-02T08:23:38.000Z</time>
      </trkpt>
      <trkpt lat="55.262591" lon="-1.605257">
        <ele>25.597357</ele>
        <time>2024-06-02T08:23:50.000Z</time>
      </trkpt>
      <trkpt lat="55.261367" lon="-1.604511">
        <ele>26.5509</ele>
        <time>2024-06-02T08:24:04.000Z</time>
      </trkpt>
      <trkpt lat="55.258489" lon="-1.602248">
        <ele>29.042591</ele>
        <time>2024-06-02T08:24:39.000Z</time>
      </trkpt>
      <trkpt lat="55.257972" lon="-1.601909">
        <ele>29.686777</ele>
        <time>2024-06-02T08:24:45.000Z</time>
      </trkpt>
      <trkpt lat="55.25784" lon="-1.601877">
        <ele>29.825924</ele>
        <time>2024-06-02T08:24:46.000Z</time>
      </trkpt>
      <trkpt lat="55.257801" lon="-1.601852">
        <ele>29.889102</ele>
        <time>2024-06-02T08:24:46.000Z</time>
      </trkpt>
      <trkpt lat="55.257653" lon="-1.601689">
        <ele>30.078973</ele>
        <time>2024-06-02T08:24:48.000Z</time>
      </trkpt>
      <trkpt lat="55.257573" lon="-1.601584">
        <ele>30.197297</ele>
        <time>2024-06-02T08:24:49.000Z</time>
      </trkpt>
      <trkpt lat="55.257515" lon="-1.601491">
        <ele>30.28578</ele>
        <time>2024-06-02T08:24:50.000Z</time>
      </trkpt>
      <trkpt lat="55.25745" lon="-1.601437">
        <ele>30.374985</ele>
        <time>2024-06-02T08:24:51.000Z</time>
      </trkpt>
      <trkpt lat="55.257351" lon="-1.601428">
        <ele>30.472109</ele>
        <time>2024-06-02T08:24:52.000Z</time>
      </trkpt>
      <trkpt lat="55.257289" lon="-1.601483">
        <ele>30.568991</ele>
        <time>2024-06-02T08:24:53.000Z</time>
      </trkpt>
      <trkpt lat="55.257219" lon="-1.601602">
        <ele>30.661515</ele>
        <time>2024-06-02T08:24:54.000Z</time>
      </trkpt>
      <trkpt lat="55.257021" lon="-1.60174">
        <ele>30.926552</ele>
        <time>2024-06-02T08:24:56.000Z</time>
      </trkpt>
      <trkpt lat="55.25664" lon="-1.601775">
        <ele>31.366626</ele>
        <time>2024-06-02T08:25:00.000Z</time>
      </trkpt>
      <trkpt lat="55.254489" lon="-1.601973">
        <ele>32.352447</ele>
        <time>2024-06-02T08:25:24.000Z</time>
      </trkpt>
      <trkpt lat="55.254302" lon="-1.601998">
        <ele>32.351145</ele>
        <time>2024-06-02T08:25:26.000Z</time>
      </trkpt>
      <trkpt lat="55.253314" lon="-1.602095">
        <ele>31.048356</ele>
        <time>2024-06-02T08:25:37.000Z</time>
      </trkpt>
      <trkpt lat="55.252907" lon="-1.602123">
        <ele>30.251306</ele>
        <time>2024-06-02T08:25:42.000Z</time>
      </trkpt>
      <trkpt lat="55.252346" lon="-1.602177">
        <ele>29.176241</ele>
        <time>2024-06-02T08:25:48.000Z</time>
      </trkpt>
      <trkpt lat="55.251736" lon="-1.602234">
        <ele>28.250181</ele>
        <time>2024-06-02T08:25:55.000Z</time>
      </trkpt>
      <trkpt lat="55.251304" lon="-1.602277">
        <ele>27.685927</ele>
        <time>2024-06-02T08:26:00.000Z</time>
      </trkpt>
      <trkpt lat="55.250896" lon="-1.60238">
        <ele>27.127436</ele>
        <time>2024-06-02T08:26:05.000Z</time>
      </trkpt>
      <trkpt lat="55.250727" lon="-1.602428">
        <ele>26.89295</ele>
        <time>2024-06-02T08:26:07.000Z</time>
      </trkpt>
      <trkpt lat="55.250553" lon="-1.602511">
        <ele>26.64813</ele>
        <time>2024-06-02T08:26:09.000Z</time>
      </trkpt>
      <trkpt lat="55.250195" lon="-1.602691">
        <ele>26.417436</ele>
        <time>2024-06-02T08:26:13.000Z</time>
      </trkpt>
      <trkpt lat="55.250022" lon="-1.602761">
        <ele>26.397406</ele>
        <time>2024-06-02T08:26:15.000Z</time>
      </trkpt>
      <trkpt lat="55.249954" lon="-1.602743">
        <ele>26.38824</ele>
        <time>2024-06-02T08:26:16.000Z</time>
      </trkpt>
      <trkpt lat="55.249878" lon="-1.602704">
        <ele>26.379302</ele>
        <time>2024-06-02T08:26:17.000Z</time>
      </trkpt>
      <trkpt lat="55.24979" lon="-1.602662">
        <ele>26.367854</ele>
        <time>2024-06-02T08:26:18.000Z</time>
      </trkpt>
      <trkpt lat="55.249757" lon="-1.602616">
        <ele>26.364338</ele>
        <time>2024-06-02T08:26:18.000Z</time>
      </trkpt>
      <trkpt lat="55.249703" lon="-1.602597">
        <ele>26.356907</ele>
        <time>2024-06-02T08:26:19.000Z</time>
      </trkpt>
      <trkpt lat="55.24966" lon="-1.602594">
        <ele>26.351484</ele>
        <time>2024-06-02T08:26:19.000Z</time>
      </trkpt>
      <trkpt lat="55.249617" lon="-1.602615">
        <ele>26.345589</ele>
        <time>2024-06-02T08:26:19.000Z</time>
      </trkpt>
      <trkpt lat="55.24958" lon="-1.602678">
        <ele>26.33967</ele>
        <time>2024-06-02T08:26:20.000Z</time>
      </trkpt>
      <trkpt lat="55.249558" lon="-1.602744">
        <ele>26.334657</ele>
        <time>2024-06-02T08:26:20.000Z</time>
      </trkpt>
      <trkpt lat="55.249554" lon="-1.602738">
        <ele>26.334665</ele>
        <time>2024-06-02T08:26:20.000Z</time>
      </trkpt>
      <trkpt lat="55.249551" lon="-1.602828">
        <ele>26.328764</ele>
        <time>2024-06-02T08:26:21.000Z</time>
      </trkpt>
      <trkpt lat="55.249511" lon="-1.602962">
        <ele>26.318155</ele>
        <time>2024-06-02T08:26:22.000Z</time>
      </trkpt>
      <trkpt lat="55.249495" lon="-1.603044">
        <ele>26.312243</ele>
        <time>2024-06-02T08:26:23.000Z</time>
      </trkpt>
      <trkpt lat="55.249547" lon="-1.603155">
        <ele>26.301062</ele>
        <time>2024-06-02T08:26:24.000Z</time>
      </trkpt>
      <trkpt lat="55.249633" lon="-1.603264">
        <ele>26.289748</ele>
        <time>2024-06-02T08:26:25.000Z</time>
      </trkpt>
      <trkpt lat="55.249848" lon="-1.603074">
        <ele>26.259595</ele>
        <time>2024-06-02T08:26:28.000Z</time>
      </trkpt>
      <trkpt lat="55.249971" lon="-1.602943">
        <ele>26.243151</ele>
        <time>2024-06-02T08:26:30.000Z</time>
      </trkpt>
      <trkpt lat="55.250381" lon="-1.602689">
        <ele>26.549666</ele>
        <time>2024-06-02T08:26:35.000Z</time>
      </trkpt>
      <trkpt lat="55.250719" lon="-1.602502">
        <ele>26.909821</ele>
        <time>2024-06-02T08:26:39.000Z</time>
      </trkpt>
      <trkpt lat="55.251025" lon="-1.602414">
        <ele>27.23576</ele>
        <time>2024-06-02T08:26:42.000Z</time>
      </trkpt>
      <trkpt lat="55.251293" lon="-1.602337">
        <ele>27.512051</ele>
        <time>2024-06-02T08:26:45.000Z</time>
      </trkpt>
      <trkpt lat="55.251723" lon="-1.602315">
        <ele>27.950204</ele>
        <time>2024-06-02T08:26:50.000Z</time>
      </trkpt>
      <trkpt lat="55.253228" lon="-1.602183">
        <ele>30.506406</ele>
        <time>2024-06-02T08:27:07.000Z</time>
      </trkpt>
      <trkpt lat="55.253517" lon="-1.60216">
        <ele>31.046804</ele>
        <time>2024-06-02T08:27:10.000Z</time>
      </trkpt>
      <trkpt lat="55.256958" lon="-1.601843">
        <ele>30.492496</ele>
        <time>2024-06-02T08:27:48.000Z</time>
      </trkpt>
      <trkpt lat="55.257011" lon="-1.601748">
        <ele>30.453911</ele>
        <time>2024-06-02T08:27:49.000Z</time>
      </trkpt>
      <trkpt lat="55.257103" lon="-1.601809">
        <ele>30.408983</ele>
        <time>2024-06-02T08:27:50.000Z</time>
      </trkpt>
      <trkpt lat="55.257152" lon="-1.601876">
        <ele>30.371023</ele>
        <time>2024-06-02T08:27:51.000Z</time>
      </trkpt>
      <trkpt lat="55.257228" lon="-1.601964">
        <ele>30.295161</ele>
        <time>2024-06-02T08:27:52.000Z</time>
      </trkpt>
      <trkpt lat="55.257296" lon="-1.602085">
        <ele>30.183154</ele>
        <time>2024-06-02T08:27:53.000Z</time>
      </trkpt>
      <trkpt lat="55.257368" lon="-1.602137">
        <ele>30.088004</ele>
        <time>2024-06-02T08:27:54.000Z</time>
      </trkpt>
      <trkpt lat="55.257452" lon="-1.602132">
        <ele>29.992572</ele>
        <time>2024-06-02T08:27:55.000Z</time>
      </trkpt>
      <trkpt lat="55.257525" lon="-1.602075">
        <ele>29.89801</ele>
        <time>2024-06-02T08:27:56.000Z</time>
      </trkpt>
      <trkpt lat="55.257545" lon="-1.602023">
        <ele>29.847716</ele>
        <time>2024-06-02T08:27:56.000Z</time>
      </trkpt>
      <trkpt lat="55.257695" lon="-1.601905">
        <ele>29.674194</ele>
        <time>2024-06-02T08:27:58.000Z</time>
      </trkpt>
      <trkpt lat="55.257794" lon="-1.601856">
        <ele>29.54309</ele>
        <time>2024-06-02T08:27:59.000Z</time>
      </trkpt>
      <trkpt lat="55.257843" lon="-1.601865">
        <ele>29.478601</ele>
        <time>2024-06-02T08:28:00.000Z</time>
      </trkpt>
      <trkpt lat="55.257971" lon="-1.601912">
        <ele>29.336545</ele>
        <time>2024-06-02T08:28:01.000Z</time>
      </trkpt>
      <trkpt lat="55.258497" lon="-1.602256">
        <ele>28.678958</ele>
        <time>2024-06-02T08:28:07.000Z</time>
      </trkpt>
      <trkpt lat="55.261382" lon="-1.604519">
        <ele>26.50734</ele>
        <time>2024-06-02T08:28:42.000Z</time>
      </trkpt>
      <trkpt lat="55.262591" lon="-1.605254">
        <ele>25.600249</ele>
        <time>2024-06-02T08:28:56.000Z</time>
      </trkpt>
      <trkpt lat="55.263676" lon="-1.60567">
        <ele>24.744533</ele>
        <time>2024-06-02T08:29:08.000Z</time>
      </trkpt>
      <trkpt lat="55.264432" lon="-1.605854">
        <ele>24.226113</ele>
        <time>2024-06-02T08:29:16.000Z</time>
      </trkpt>
      <trkpt lat="55.265854" lon="-1.605956">
        <ele>23.29775</ele>
        <time>2024-06-02T08:29:32.000Z</time>
      </trkpt>
      <trkpt lat="55.266748" lon="-1.60584">
        <ele>22.75398</ele>
        <time>2024-06-02T08:29:42.000Z</time>
      </trkpt>
      <trkpt lat="55.267496" lon="-1.605659">
        <ele>22.312758</ele>
        <time>2024-06-02T08:29:50.000Z</time>
      </trkpt>
      <trkpt lat="55.268248" lon="-1.60536">
        <ele>21.98974</ele>
        <time>2024-06-02T08:29:59.000Z</time>
      </trkpt>
      <trkpt lat="55.269109" lon="-1.604928">
        <ele>21.624389</ele>
        <time>2024-06-02T08:30:09.000Z</time>
      </trkpt>
      <trkpt lat="55.270113" lon="-1.604205">
        <ele>21.32501</ele>
        <time>2024-06-02T08:30:21.000Z</time>
      </trkpt>
      <trkpt lat="55.271691" lon="-1.60285">
        <ele>20.849067</ele>
        <time>2024-06-02T08:30:41.000Z</time>
      </trkpt>
      <trkpt lat="55.272772" lon="-1.602109">
        <ele>20.50577</ele>
        <time>2024-06-02T08:30:54.000Z</time>
      </trkpt>
      <trkpt lat="55.273026" lon="-1.601937">
        <ele>20.414912</ele>
        <time>2024-06-02T08:30:57.000Z</time>
      </trkpt>
      <trkpt lat="55.273429" lon="-1.601713">
        <ele>20.270308</ele>
        <time>2024-06-02T08:31:02.000Z</time>
      </trkpt>
      <trkpt lat="55.274776" lon="-1.601159">
        <ele>19.721663</ele>
        <time>2024-06-02T08:31:17.000Z</time>
      </trkpt>
      <trkpt lat="55.275386" lon="-1.60099">
        <ele>19.412028</ele>
        <time>2024-06-02T08:31:24.000Z</time>
      </trkpt>
      <trkpt lat="55.276024" lon="-1.600853">
        <ele>19.092039</ele>
        <time>2024-06-02T08:31:31.000Z</time>
      </trkpt>
      <trkpt lat="55.277539" lon="-1.600649">
        <ele>18.221777</ele>
        <time>2024-06-02T08:31:48.000Z</time>
      </trkpt>
      <trkpt lat="55.277612" lon="-1.600647">
        <ele>18.17868</ele>
        <time>2024-06-02T08:31:49.000Z</time>
      </trkpt>
      <trkpt lat="55.278614" lon="-1.60051">
        <ele>17.814007</ele>
        <time>2024-06-02T08:32:00.000Z</time>
      </trkpt>
      <trkpt lat="55.279691" lon="-1.600377">
        <ele>17.424429</ele>
        <time>2024-06-02T08:32:12.000Z</time>
      </trkpt>
      <trkpt lat="55.280177" lon="-1.600315">
        <ele>17.132246</ele>
        <time>2024-06-02T08:32:17.000Z</time>
      </trkpt>
      <trkpt lat="55.280928" lon="-1.600196">
        <ele>16.665488</ele>
        <time>2024-06-02T08:32:25.000Z</time>
      </trkpt>
      <trkpt lat="55.281384" lon="-1.60012">
        <ele>16.389952</ele>
        <time>2024-06-02T08:32:30.000Z</time>
      </trkpt>
      <trkpt lat="55.281505" lon="-1.600095">
        <ele>16.346334</ele>
        <time>2024-06-02T08:32:31.000Z</time>
      </trkpt>
      <trkpt lat="55.281676" lon="-1.600043">
        <ele>16.274745</ele>
        <time>2024-06-02T08:32:33.000Z</time>
      </trkpt>
      <trkpt lat="55.282844" lon="-1.59958">
        <ele>15.809818</ele>
        <time>2024-06-02T08:32:46.000Z</time>
      </trkpt>
      <trkpt lat="55.284925" lon="-1.598288">
        <ele>16.789989</ele>
        <time>2024-06-02T08:33:11.000Z</time>
      </trkpt>
      <trkpt lat="55.285428" lon="-1.598109">
        <ele>16.92115</ele>
        <time>2024-06-02T08:33:17.000Z</time>
      </trkpt>
      <trkpt lat="55.285496" lon="-1.598079">
        <ele>16.939921</ele>
        <time>2024-06-02T08:33:18.000Z</time>
      </trkpt>
      <trkpt lat="55.285677" lon="-1.598006">
        <ele>16.988986</ele>
        <time>2024-06-02T08:33:20.000Z</time>
      </trkpt>
      <trkpt lat="55.285997" lon="-1.597921">
        <ele>17.069624</ele>
        <time>2024-06-02T08:33:24.000Z</time>
      </trkpt>
      <trkpt lat="55.288202" lon="-1.597619">
        <ele>16.443609</ele>
        <time>2024-06-02T08:33:49.000Z</time>
      </trkpt>
      <trkpt lat="55.289272" lon="-1.597284">
        <ele>15.76005</ele>
        <time>2024-06-02T08:34:01.000Z</time>
      </trkpt>
      <trkpt lat="55.290393" lon="-1.596667">
        <ele>14.923916</ele>
        <time>2024-06-02T08:34:14.000Z</time>
      </trkpt>
      <trkpt lat="55.294324" lon="-1.593636">
        <ele>11.875469</ele>
        <time>2024-06-02T08:35:02.000Z</time>
      </trkpt>
      <trkpt lat="55.294738" lon="-1.593315">
        <ele>11.779193</ele>
        <time>2024-06-02T08:35:07.000Z</time>
      </trkpt>
      <trkpt lat="55.294918" lon="-1.593183">
        <ele>11.738122</ele>
        <time>2024-06-02T08:35:09.000Z</time>
      </trkpt>
      <trkpt lat="55.295086" lon="-1.593024">
        <ele>11.767762</ele>
        <time>2024-06-02T08:35:11.000Z</time>
      </trkpt>
      <trkpt lat="55.295203" lon="-1.59294">
        <ele>11.925597</ele>
        <time>2024-06-02T08:35:12.000Z</time>
      </trkpt>
      <trkpt lat="55.295807" lon="-1.592482">
        <ele>12.715466</ele>
        <time>2024-06-02T08:35:19.000Z</time>
      </trkpt>
      <trkpt lat="55.295995" lon="-1.592307">
        <ele>12.993784</ele>
        <time>2024-06-02T08:35:21.000Z</time>
      </trkpt>
      <trkpt lat="55.296479" lon="-1.591832">
        <ele>13.654531</ele>
        <time>2024-06-02T08:35:27.000Z</time>
      </trkpt>
      <trkpt lat="55.299545" lon="-1.588179">
        <ele>18.958032</ele>
        <time>2024-06-02T08:36:08.000Z</time>
      </trkpt>
      <trkpt lat="55.30013" lon="-1.587504">
        <ele>19.191078</ele>
        <time>2024-06-02T08:36:16.000Z</time>
      </trkpt>
      <trkpt lat="55.300154" lon="-1.587463">
        <ele>19.197696</ele>
        <time>2024-06-02T08:36:16.000Z</time>
      </trkpt>
      <trkpt lat="55.300262" lon="-1.587326">
        <ele>19.218024</ele>
        <time>2024-06-02T08:36:17.000Z</time>
      </trkpt>
      <trkpt lat="55.302527" lon="-1.584546">
        <ele>18.231564</ele>
        <time>2024-06-02T08:36:48.000Z</time>
      </trkpt>
      <trkpt lat="55.304383" lon="-1.581714">
        <ele>14.837143</ele>
        <time>2024-06-02T08:37:15.000Z</time>
      </trkpt>
      <trkpt lat="55.304728" lon="-1.58128">
        <ele>14.332337</ele>
        <time>2024-06-02T08:37:20.000Z</time>
      </trkpt>
      <trkpt lat="55.305023" lon="-1.580952">
        <ele>13.906348</ele>
        <time>2024-06-02T08:37:24.000Z</time>
      </trkpt>
      <trkpt lat="55.305204" lon="-1.580782">
        <ele>13.651033</ele>
        <time>2024-06-02T08:37:26.000Z</time>
      </trkpt>
      <trkpt lat="55.305981" lon="-1.58026">
        <ele>13.05472</ele>
        <time>2024-06-02T08:37:35.000Z</time>
      </trkpt>
      <trkpt lat="55.306396" lon="-1.580079">
        <ele>12.817206</ele>
        <time>2024-06-02T08:37:40.000Z</time>
      </trkpt>
      <trkpt lat="55.307327" lon="-1.579989">
        <ele>12.363657</ele>
        <time>2024-06-02T08:37:50.000Z</time>
      </trkpt>
      <trkpt lat="55.308215" lon="-1.580149">
        <ele>12.150607</ele>
        <time>2024-06-02T08:38:00.000Z</time>
      </trkpt>
      <trkpt lat="55.309416" lon="-1.580433">
        <ele>11.729071</ele>
        <time>2024-06-02T08:38:13.000Z</time>
      </trkpt>
      <trkpt lat="55.309772" lon="-1.580463">
        <ele>11.557732</ele>
        <time>2024-06-02T08:38:17.000Z</time>
      </trkpt>
      <trkpt lat="55.310399" lon="-1.580494">
        <ele>11.240151</ele>
        <time>2024-06-02T08:38:24.000Z</time>
      </trkpt>
      <trkpt lat="55.311665" lon="-1.580291">
        <ele>10.200174</ele>
        <time>2024-06-02T08:38:38.000Z</time>
      </trkpt>
      <trkpt lat="55.313332" lon="-1.579871">
        <ele>9.117021</ele>
        <time>2024-06-02T08:38:57.000Z</time>
      </trkpt>
      <trkpt lat="55.313681" lon="-1.57973">
        <ele>9.006083</ele>
        <time>2024-06-02T08:39:01.000Z</time>
      </trkpt>
      <trkpt lat="55.314375" lon="-1.579445">
        <ele>8.824276</ele>
        <time>2024-06-02T08:39:09.000Z</time>
      </trkpt>
      <trkpt lat="55.315425" lon="-1.5794">
        <ele>9.052371</ele>
        <time>2024-06-02T08:39:21.000Z</time>
      </trkpt>
      <trkpt lat="55.315818" lon="-1.579294">
        <ele>9.136578</ele>
        <time>2024-06-02T08:39:25.000Z</time>
      </trkpt>
      <trkpt lat="55.316731" lon="-1.578955">
        <ele>9.210013</ele>
        <time>2024-06-02T08:39:35.000Z</time>
      </trkpt>
      <trkpt lat="55.318033" lon="-1.578618">
        <ele>9.253684</ele>
        <time>2024-06-02T08:39:50.000Z</time>
      </trkpt>
      <trkpt lat="55.318416" lon="-1.578553">
        <ele>9.289728</ele>
        <time>2024-06-02T08:39:54.000Z</time>
      </trkpt>
      <trkpt lat="55.318767" lon="-1.578561">
        <ele>9.320248</ele>
        <time>2024-06-02T08:39:58.000Z</time>
      </trkpt>
      <trkpt lat="55.319022" lon="-1.578548">
        <ele>9.344444</ele>
        <time>2024-06-02T08:40:01.000Z</time>
      </trkpt>
      <trkpt lat="55.319356" lon="-1.578635">
        <ele>9.374728</ele>
        <time>2024-06-02T08:40:05.000Z</time>
      </trkpt>
      <trkpt lat="55.319612" lon="-1.578701">
        <ele>9.39883</ele>
        <time>2024-06-02T08:40:08.000Z</time>
      </trkpt>
      <trkpt lat="55.319731" lon="-1.57875">
        <ele>9.382509</ele>
        <time>2024-06-02T08:40:09.000Z</time>
      </trkpt>
      <trkpt lat="55.320491" lon="-1.579071">
        <ele>9.250196</ele>
        <time>2024-06-02T08:40:18.000Z</time>
      </trkpt>
      <trkpt lat="55.323123" lon="-1.580269">
        <ele>8.544167</ele>
        <time>2024-06-02T08:40:48.000Z</time>
      </trkpt>
      <trkpt lat="55.323422" lon="-1.58032">
        <ele>8.547984</ele>
        <time>2024-06-02T08:40:51.000Z</time>
      </trkpt>
      <trkpt lat="55.323481" lon="-1.580321">
        <ele>8.549295</ele>
        <time>2024-06-02T08:40:52.000Z</time>
      </trkpt>
      <trkpt lat="55.323676" lon="-1.580321">
        <ele>8.552732</ele>
        <time>2024-06-02T08:40:54.000Z</time>
      </trkpt>
      <trkpt lat="55.323698" lon="-1.58037">
        <ele>8.553279</ele>
        <time>2024-06-02T08:40:54.000Z</time>
      </trkpt>
      <trkpt lat="55.323724" lon="-1.5804">
        <ele>8.553792</ele>
        <time>2024-06-02T08:40:54.000Z</time>
      </trkpt>
      <trkpt lat="55.323764" lon="-1.580422">
        <ele>8.554609</ele>
        <time>2024-06-02T08:40:54.000Z</time>
      </trkpt>
      <trkpt lat="55.323787" lon="-1.58044">
        <ele>8.554964</ele>
        <time>2024-06-02T08:40:54.000Z</time>
      </trkpt>
      <trkpt lat="55.323799" lon="-1.580427">
        <ele>8.555353</ele>
        <time>2024-06-02T08:40:54.000Z</time>
      </trkpt>
      <trkpt lat="55.323817" lon="-1.58041">
        <ele>8.555564</ele>
        <time>2024-06-02T08:40:54.000Z</time>
      </trkpt>
      <trkpt lat="55.323865" lon="-1.580313">
        <ele>8.55694</ele>
        <time>2024-06-02T08:40:55.000Z</time>
      </trkpt>
      <trkpt lat="55.323859" lon="-1.580252">
        <ele>8.55761</ele>
        <time>2024-06-02T08:40:55.000Z</time>
      </trkpt>
      <trkpt lat="55.323851" lon="-1.580189">
        <ele>8.55826</ele>
        <time>2024-06-02T08:40:55.000Z</time>
      </trkpt>
      <trkpt lat="55.323846" lon="-1.58018">
        <ele>8.558341</ele>
        <time>2024-06-02T08:40:55.000Z</time>
      </trkpt>
      <trkpt lat="55.323832" lon="-1.580129">
        <ele>8.558895</ele>
        <time>2024-06-02T08:40:55.000Z</time>
      </trkpt>
      <trkpt lat="55.323779" lon="-1.580095">
        <ele>8.560057</ele>
        <time>2024-06-02T08:40:56.000Z</time>
      </trkpt>
      <trkpt lat="55.323732" lon="-1.580115">
        <ele>8.560693</ele>
        <time>2024-06-02T08:40:57.000Z</time>
      </trkpt>
      <trkpt lat="55.323716" lon="-1.580129">
        <ele>8.561235</ele>
        <time>2024-06-02T08:40:57.000Z</time>
      </trkpt>
      <trkpt lat="55.323637" lon="-1.580235">
        <ele>8.562772</ele>
        <time>2024-06-02T08:40:58.000Z</time>
      </trkpt>
      <trkpt lat="55.323482" lon="-1.580327">
        <ele>8.565641</ele>
        <time>2024-06-02T08:41:00.000Z</time>
      </trkpt>
      <trkpt lat="55.323422" lon="-1.58032">
        <ele>8.566945</ele>
        <time>2024-06-02T08:41:01.000Z</time>
      </trkpt>
      <trkpt lat="55.323123" lon="-1.580266">
        <ele>8.572323</ele>
        <time>2024-06-02T08:41:04.000Z</time>
      </trkpt>
      <trkpt lat="55.320503" lon="-1.579069">
        <ele>9.251524</ele>
        <time>2024-06-02T08:41:34.000Z</time>
      </trkpt>
      <trkpt lat="55.31974" lon="-1.578742">
        <ele>9.363712</ele>
        <time>2024-06-02T08:41:43.000Z</time>
      </trkpt>
      <trkpt lat="55.319618" lon="-1.578712">
        <ele>9.380313</ele>
        <time>2024-06-02T08:41:44.000Z</time>
      </trkpt>
      <trkpt lat="55.319357" lon="-1.578633">
        <ele>9.384255</ele>
        <time>2024-06-02T08:41:47.000Z</time>
      </trkpt>
      <trkpt lat="55.319018" lon="-1.578556">
        <ele>9.351867</ele>
        <time>2024-06-02T08:41:51.000Z</time>
      </trkpt>
      <trkpt lat="55.318764" lon="-1.578558">
        <ele>9.326011</ele>
        <time>2024-06-02T08:41:54.000Z</time>
      </trkpt>
      <trkpt lat="55.318421" lon="-1.578554">
        <ele>9.293385</ele>
        <time>2024-06-02T08:41:58.000Z</time>
      </trkpt>
      <trkpt lat="55.318024" lon="-1.578619">
        <ele>9.25486</ele>
        <time>2024-06-02T08:42:02.000Z</time>
      </trkpt>
      <trkpt lat="55.316741" lon="-1.57896">
        <ele>9.202384</ele>
        <time>2024-06-02T08:42:16.000Z</time>
      </trkpt>
      <trkpt lat="55.315813" lon="-1.579303">
        <ele>9.155677</ele>
        <time>2024-06-02T08:42:27.000Z</time>
      </trkpt>
      <trkpt lat="55.315421" lon="-1.579385">
        <ele>9.067273</ele>
        <time>2024-06-02T08:42:31.000Z</time>
      </trkpt>
      <trkpt lat="55.314383" lon="-1.579449">
        <ele>8.827769</ele>
        <time>2024-06-02T08:42:43.000Z</time>
      </trkpt>
      <trkpt lat="55.313668" lon="-1.579737">
        <ele>8.972614</ele>
        <time>2024-06-02T08:42:51.000Z</time>
      </trkpt>
      <trkpt lat="55.31333" lon="-1.579867">
        <ele>9.110934</ele>
        <time>2024-06-02T08:42:55.000Z</time>
      </trkpt>
      <trkpt lat="55.311659" lon="-1.580294">
        <ele>10.188658</ele>
        <time>2024-06-02T08:43:14.000Z</time>
      </trkpt>
      <trkpt lat="55.310393" lon="-1.580507">
        <ele>11.281755</ele>
        <time>2024-06-02T08:43:28.000Z</time>
      </trkpt>
      <trkpt lat="55.309771" lon="-1.580459">
        <ele>11.566371</ele>
        <time>2024-06-02T08:43:35.000Z</time>
      </trkpt>
      <trkpt lat="55.309427" lon="-1.58043">
        <ele>11.719924</ele>
        <time>2024-06-02T08:43:39.000Z</time>
      </trkpt>
      <trkpt lat="55.308208" lon="-1.580144">
        <ele>12.152331</ele>
        <time>2024-06-02T08:43:53.000Z</time>
      </trkpt>
      <trkpt lat="55.307332" lon="-1.579989">
        <ele>12.376337</ele>
        <time>2024-06-02T08:44:03.000Z</time>
      </trkpt>
      <trkpt lat="55.306411" lon="-1.580079">
        <ele>12.814498</ele>
        <time>2024-06-02T08:44:13.000Z</time>
      </trkpt>
      <trkpt lat="55.305989" lon="-1.580266">
        <ele>13.068055</ele>
        <time>2024-06-02T08:44:18.000Z</time>
      </trkpt>
      <trkpt lat="55.305215" lon="-1.580789">
        <ele>13.606241</ele>
        <time>2024-06-02T08:44:27.000Z</time>
      </trkpt>
      <trkpt lat="55.305029" lon="-1.580956">
        <ele>13.872635</ele>
        <time>2024-06-02T08:44:29.000Z</time>
      </trkpt>
      <trkpt lat="55.304719" lon="-1.581276">
        <ele>14.317137</ele>
        <time>2024-06-02T08:44:33.000Z</time>
      </trkpt>
      <trkpt lat="55.304378" lon="-1.581723">
        <ele>14.843865</ele>
        <time>2024-06-02T08:44:38.000Z</time>
      </trkpt>
      <trkpt lat="55.302524" lon="-1.584538">
        <ele>18.227964</ele>
        <time>2024-06-02T08:45:05.000Z</time>
      </trkpt>
      <trkpt lat="55.300273" lon="-1.587329">
        <ele>19.193532</ele>
        <time>2024-06-02T08:45:36.000Z</time>
      </trkpt>
      <trkpt lat="55.30015" lon="-1.587447">
        <ele>19.156493</ele>
        <time>2024-06-02T08:45:38.000Z</time>
      </trkpt>
      <trkpt lat="55.300126" lon="-1.58749">
        <ele>19.14443</ele>
        <time>2024-06-02T08:45:38.000Z</time>
      </trkpt>
      <trkpt lat="55.299544" lon="-1.588176">
        <ele>18.943768</ele>
        <time>2024-06-02T08:45:46.000Z</time>
      </trkpt>
      <trkpt lat="55.297903" lon="-1.590135">
        <ele>16.117563</ele>
        <time>2024-06-02T08:46:08.000Z</time>
      </trkpt>
      <trkpt lat="55.29647" lon="-1.591841">
        <ele>13.619949</ele>
        <time>2024-06-02T08:46:27.000Z</time>
      </trkpt>
      <trkpt lat="55.295995" lon="-1.592302">
        <ele>13.009332</ele>
        <time>2024-06-02T08:46:33.000Z</time>
      </trkpt>
      <trkpt lat="55.295796" lon="-1.592473">
        <ele>12.752145</ele>
        <time>2024-06-02T08:46:35.000Z</time>
      </trkpt>
      <trkpt lat="55.295202" lon="-1.592922">
        <ele>12.022188</ele>
        <time>2024-06-02T08:46:42.000Z</time>
      </trkpt>
      <trkpt lat="55.295084" lon="-1.593028">
        <ele>11.876336</ele>
        <time>2024-06-02T08:46:43.000Z</time>
      </trkpt>
      <trkpt lat="55.294912" lon="-1.593194">
        <ele>11.670739</ele>
        <time>2024-06-02T08:46:45.000Z</time>
      </trkpt>
      <trkpt lat="55.294874" lon="-1.593055">
        <ele>11.712776</ele>
        <time>2024-06-02T08:46:46.000Z</time>
      </trkpt>
      <trkpt lat="55.29471" lon="-1.593071">
        <ele>11.780693</ele>
        <time>2024-06-02T08:46:48.000Z</time>
      </trkpt>
      <trkpt lat="55.294659" lon="-1.593067">
        <ele>11.806189</ele>
        <time>2024-06-02T08:46:49.000Z</time>
      </trkpt>
      <trkpt lat="55.294588" lon="-1.592857">
        <ele>11.873387</ele>
        <time>2024-06-02T08:46:51.000Z</time>
      </trkpt>
      <trkpt lat="55.294487" lon="-1.592654">
        <ele>11.940051</ele>
        <time>2024-06-02T08:46:53.000Z</time>
      </trkpt>
      <trkpt lat="55.294448" lon="-1.592518">
        <ele>11.982898</ele>
        <time>2024-06-02T08:46:54.000Z</time>
      </trkpt>
      <trkpt lat="55.2943" lon="-1.59207">
        <ele>12.122218</ele>
        <time>2024-06-02T08:46:57.000Z</time>
      </trkpt>
      <trkpt lat="55.29427" lon="-1.591957">
        <ele>12.15475</ele>
        <time>2024-06-02T08:46:58.000Z</time>
      </trkpt>
      <trkpt lat="55.294164" lon="-1.591561">
        <ele>12.270161</ele>
        <time>2024-06-02T08:47:01.000Z</time>
      </trkpt>
      <trkpt lat="55.294092" lon="-1.591118">
        <ele>12.388838</ele>
        <time>2024-06-02T08:47:04.000Z</time>
      </trkpt>
      <trkpt lat="55.294073" lon="-1.590696">
        <ele>12.522949</ele>
        <time>2024-06-02T08:47:07.000Z</time>
      </trkpt>
      <trkpt lat="55.29409" lon="-1.589879">
        <ele>13.521135</ele>
        <time>2024-06-02T08:47:12.000Z</time>
      </trkpt>
      <trkpt lat="55.294097" lon="-1.5884">
        <ele>15.350001</ele>
        <time>2024-06-02T08:47:21.000Z</time>
      </trkpt>
      <trkpt lat="55.294069" lon="-1.587287">
        <ele>16.558692</ele>
        <time>2024-06-02T08:47:28.000Z</time>
      </trkpt>
      <trkpt lat="55.293893" lon="-1.586285">
        <ele>17.302159</ele>
        <time>2024-06-02T08:47:35.000Z</time>
      </trkpt>
      <trkpt lat="55.293742" lon="-1.584953">
        <ele>18.2715</ele>
        <time>2024-06-02T08:47:44.000Z</time>
      </trkpt>
      <trkpt lat="55.293702" lon="-1.584615">
        <ele>18.518333</ele>
        <time>2024-06-02T08:47:46.000Z</time>
      </trkpt>
      <trkpt lat="55.293685" lon="-1.584513">
        <ele>18.581772</ele>
        <time>2024-06-02T08:47:47.000Z</time>
      </trkpt>
      <trkpt lat="55.293404" lon="-1.582637">
        <ele>17.652683</ele>
        <time>2024-06-02T08:47:59.000Z</time>
      </trkpt>
      <trkpt lat="55.293152" lon="-1.581762">
        <ele>17.16579</ele>
        <time>2024-06-02T08:48:05.000Z</time>
      </trkpt>
      <trkpt lat="55.293036" lon="-1.581637">
        <ele>17.040703</ele>
        <time>2024-06-02T08:48:07.000Z</time>
      </trkpt>
      <trkpt lat="55.29286" lon="-1.581605">
        <ele>16.69721</ele>
        <time>2024-06-02T08:48:09.000Z</time>
      </trkpt>
      <trkpt lat="55.292135" lon="-1.581952">
        <ele>15.155069</ele>
        <time>2024-06-02T08:48:17.000Z</time>
      </trkpt>
      <trkpt lat="55.291772" lon="-1.581965">
        <ele>14.418395</ele>
        <time>2024-06-02T08:48:21.000Z</time>
      </trkpt>
      <trkpt lat="55.291605" lon="-1.581863">
        <ele>14.051673</ele>
        <time>2024-06-02T08:48:23.000Z</time>
      </trkpt>
      <trkpt lat="55.291424" lon="-1.581653">
        <ele>13.604391</ele>
        <time>2024-06-02T08:48:25.000Z</time>
      </trkpt>
      <trkpt lat="55.291237" lon="-1.581246">
        <ele>12.963173</ele>
        <time>2024-06-02T08:48:28.000Z</time>
      </trkpt>
      <trkpt lat="55.290923" lon="-1.580525">
        <ele>11.845584</ele>
        <time>2024-06-02T08:48:34.000Z</time>
      </trkpt>
      <trkpt lat="55.290759" lon="-1.580027">
        <ele>11.144994</ele>
        <time>2024-06-02T08:48:38.000Z</time>
      </trkpt>
      <trkpt lat="55.290712" lon="-1.579456">
        <ele>10.420568</ele>
        <time>2024-06-02T08:48:42.000Z</time>
      </trkpt>
      <trkpt lat="55.290556" lon="-1.577732">
        <ele>9.034101</ele>
        <time>2024-06-02T08:48:53.000Z</time>
      </trkpt>
      <trkpt lat="55.290427" lon="-1.576223">
        <ele>8.407155</ele>
        <time>2024-06-02T08:49:03.000Z</time>
      </trkpt>
      <trkpt lat="55.290431" lon="-1.576043">
        <ele>8.327941</ele>
        <time>2024-06-02T08:49:04.000Z</time>
      </trkpt>
      <trkpt lat="55.290416" lon="-1.575821">
        <ele>8.236712</ele>
        <time>2024-06-02T08:49:05.000Z</time>
      </trkpt>
      <trkpt lat="55.290452" lon="-1.575245">
        <ele>8.08416330395</ele>
        <time>2024-06-02T08:49:09.000Z</time>
      </trkpt>
      <trkpt lat="55.290523" lon="-1.574546">
        <ele>7.89723969499</ele>
        <time>2024-06-02T08:49:13.000Z</time>
      </trkpt>
      <trkpt lat="55.290679" lon="-1.574072">
        <ele>7.75311077015</ele>
        <time>2024-06-02T08:49:16.000Z</time>
      </trkpt>
      <trkpt lat="55.290951" lon="-1.573365">
        <ele>7.52848634193</ele>
        <time>2024-06-02T08:49:21.000Z</time>
      </trkpt>
      <trkpt lat="55.291029" lon="-1.57319">
        <ele>7.46998073139</ele>
        <time>2024-06-02T08:49:22.000Z</time>
      </trkpt>
      <trkpt lat="55.29119" lon="-1.57295">
        <ele>7.37234588685</ele>
        <time>2024-06-02T08:49:24.000Z</time>
      </trkpt>
      <trkpt lat="55.291237" lon="-1.57295">
        <ele>7.35061621589</ele>
        <time>2024-06-02T08:49:25.000Z</time>
      </trkpt>
    </trkseg>
  </trk>
</gpx>

<!--
Performance optimized by W3 Total Cache. Learn more: https://www.boldgrid.com/w3-total-cache/?utm_source=w3tc&utm_medium=footer_comment&utm_campaign=free_plugin

Page Caching using Disk: Enhanced{w3tc_pagecache_reject_reason} 

Served from: www.aquabike.world @ 2026-05-07 20:09:26 by W3 Total Cache
-->